Estación de Coihueco

Ultimos registro cada 15 minutos 22
Estación Fecha / Hora Temperatura Humedad Lluvia Velocidad Dirección Radiación Presion
22 Coihueco 04-09-2026 05:15 -1,8 100 0 0 239 0,6 999,7
21 Coihueco 04-09-2026 05:00 -1,8 100 0 0 239 0,6 999,5
20 Coihueco 04-09-2026 04:45 -1,7 100 0 0 239 0,6 999,5
19 Coihueco 04-09-2026 04:30 -1,3 100 0 0 239 0,6 999,4
18 Coihueco 04-09-2026 04:15 -1,2 100 0 0 239 0,6 999,4
17 Coihueco 04-09-2026 04:00 -1,1 99,9 0 0 239 0,6 999,4
16 Coihueco 04-09-2026 03:45 -0,6 99,8 0 0 239 0,6 999,4
15 Coihueco 04-09-2026 03:30 0,9 100 0 0 239 0,6 999,5
14 Coihueco 04-09-2026 03:15 0 100 0 0 239 0,6 999,6
13 Coihueco 04-09-2026 03:00 -0,1 100 0 0 239 0,6 999,6
12 Coihueco 04-09-2026 02:45 -0,6 99,5 0 0 239 0,6 999,8
11 Coihueco 04-09-2026 02:30 0,9 99,7 0 0 239 0,6 999,7
10 Coihueco 04-09-2026 02:15 0,8 99,7 0 0 239 0,6 999,8
9 Coihueco 04-09-2026 02:00 0,7 99,6 0 0 239 0,6 999,8
8 Coihueco 04-09-2026 01:45 0,4 99,4 0 0 239 0,6 999,9
7 Coihueco 04-09-2026 01:30 1,2 99 0 0 239 0,6 999,9
6 Coihueco 04-09-2026 01:15 2 98,6 0 0 239 0,6 999,9
5 Coihueco 04-09-2026 01:00 3,2 98,8 0 0 239 0,6 999,8
4 Coihueco 04-09-2026 00:45 2,2 98,5 0 0 239 0,6 999,9
3 Coihueco 04-09-2026 00:30 2,8 98,4 0 0 239 0,6 1000
2 Coihueco 04-09-2026 00:15 2,9 98,4 0 0 239 0,6 1000
1 Coihueco 04-09-2026 00:00 3,1 97,6 0 0 239 0,6 1000